Time;durP1;ratioP1;P1;durP2;ratioP2;P2;SDS_P1;SDS_P2;PMS_P1;PMS_P2;Temp;Humidity;BMP_temperature;BMP_pressure;BME280_temperature;BME280_humidity;BME280_pressure;Samples;Min_cycle;Max_cycle;Signal;HPM_P1;HPM_P2
2022/05/07 00:02:04;;;;;;;5.60;3.20;;;;;;;;;;5014299;28;20042;-65
2022/05/07 00:04:29;;;;;;;6.22;3.00;;;;;;;;;;5014500;28;20045;-64
2022/05/07 00:06:55;;;;;;;7.50;3.63;;;;;;;;;;5014349;28;20061;-63
2022/05/07 00:09:21;;;;;;;7.65;3.67;;;;;;;;;;5014637;28;20050;-64
2022/05/07 00:11:49;;;;;;;9.02;3.42;;;;;;;;;;5014296;28;20034;-65
2022/05/07 00:14:14;;;;;;;8.98;4.18;;;;;;;;;;5014418;28;20026;-65
2022/05/07 00:19:24;;;;;;;6.45;3.80;;;;;;;;;;5014413;28;20514;-65
2022/05/07 00:21:50;;;;;;;8.00;4.28;;;;;;;;;;5014235;28;20034;-65
2022/05/07 00:24:15;;;;;;;7.63;3.90;;;;;;;;;;5014176;28;20467;-65
2022/05/07 00:26:41;;;;;;;7.82;4.05;;;;;;;;;;5013902;28;20033;-65
2022/05/07 00:29:06;;;;;;;8.45;3.90;;;;;;;;;;5014040;28;20109;-65
2022/05/07 00:31:32;;;;;;;9.05;4.13;;;;;;;;;;5013979;28;20025;-63
2022/05/07 00:33:57;;;;;;;6.93;3.88;;;;;;;;;;5014165;28;20110;-65
2022/05/07 00:36:23;;;;;;;10.90;3.97;;;;;;;;;;5014025;28;20041;-65
2022/05/07 00:38:49;;;;;;;6.18;3.70;;;;;;;;;;5013944;28;20475;-65
2022/05/07 00:41:14;;;;;;;7.13;3.90;;;;;;;;;;5013903;28;20022;-65
2022/05/07 00:43:41;;;;;;;9.50;4.22;;;;;;;;;;5013854;28;20104;-64
2022/05/07 00:46:06;;;;;;;7.40;4.32;;;;;;;;;;5013868;28;20100;-65
2022/05/07 00:48:33;;;;;;;8.70;4.35;;;;;;;;;;5013722;28;20504;-64
2022/05/07 00:53:45;;;;;;;9.93;4.22;;;;;;;;;;5013720;28;20447;-63
2022/05/07 00:56:10;;;;;;;8.35;4.25;;;;;;;;;;5013408;28;20079;-65
2022/05/07 00:58:38;;;;;;;8.25;3.92;;;;;;;;;;5013625;28;20113;-65
2022/05/07 01:01:03;;;;;;;6.22;4.00;;;;;;;;;;5013486;28;20125;-65
2022/05/07 01:03:29;;;;;;;6.68;4.05;;;;;;;;;;5013366;28;20034;-65
2022/05/07 01:05:55;;;;;;;8.32;4.03;;;;;;;;;;5013450;28;20033;-65
2022/05/07 01:08:20;;;;;;;7.25;4.57;;;;;;;;;;5013378;28;20034;-65
2022/05/07 01:10:47;;;;;;;6.80;4.38;;;;;;;;;;5013151;28;20076;-65
2022/05/07 01:13:13;;;;;;;7.53;4.20;;;;;;;;;;5013396;28;20029;-64
2022/05/07 01:15:46;;;;;;;9.88;4.53;;;;;;;;;;5013231;28;20105;-65
2022/05/07 01:18:13;;;;;;;6.97;4.15;;;;;;;;;;5013325;28;20045;-65
2022/05/07 01:20:38;;;;;;;8.32;4.50;;;;;;;;;;5013298;28;20434;-65
2022/05/07 01:23:04;;;;;;;6.80;4.20;;;;;;;;;;5013050;28;20097;-64
2022/05/07 01:25:30;;;;;;;8.95;4.20;;;;;;;;;;5012914;28;20041;-65
2022/05/07 01:27:56;;;;;;;7.55;4.32;;;;;;;;;;5013162;28;20030;-65
2022/05/07 01:30:23;;;;;;;8.30;4.30;;;;;;;;;;5013133;28;20024;-64
2022/05/07 01:32:48;;;;;;;10.52;4.65;;;;;;;;;;5013146;28;20025;-65
2022/05/07 01:35:14;;;;;;;7.72;4.45;;;;;;;;;;5013197;28;20099;-65
2022/05/07 01:37:39;;;;;;;8.73;4.25;;;;;;;;;;5013145;28;20029;-64
2022/05/07 01:40:06;;;;;;;7.88;4.50;;;;;;;;;;5012798;28;20021;-64
2022/05/07 01:42:31;;;;;;;8.23;4.50;;;;;;;;;;5012981;28;20050;-63
2022/05/07 01:44:57;;;;;;;9.13;4.50;;;;;;;;;;5012982;28;20061;-65
2022/05/07 01:50:07;;;;;;;6.45;4.07;;;;;;;;;;5013241;28;20037;-65
2022/05/07 01:52:32;;;;;;;7.60;4.30;;;;;;;;;;5013093;28;20033;-65
2022/05/07 01:54:58;;;;;;;8.45;4.57;;;;;;;;;;5012659;28;20026;-66
2022/05/07 01:57:23;;;;;;;8.55;4.40;;;;;;;;;;5012974;28;20030;-65
2022/05/07 01:59:49;;;;;;;7.63;4.45;;;;;;;;;;5012875;28;20029;-66
2022/05/07 02:02:14;;;;;;;11.65;4.47;;;;;;;;;;5013041;28;20054;-65
2022/05/07 02:04:40;;;;;;;8.38;4.10;;;;;;;;;;5016754;28;20030;-66
2022/05/07 02:07:07;;;;;;;7.22;4.05;;;;;;;;;;5016727;28;20034;-65
2022/05/07 02:09:32;;;;;;;8.43;4.00;;;;;;;;;;5016499;28;20109;-65
2022/05/07 02:11:58;;;;;;;7.85;4.13;;;;;;;;;;5016816;28;20129;-65
2022/05/07 02:14:23;;;;;;;7.15;4.25;;;;;;;;;;5016712;28;20022;-64
2022/05/07 02:16:49;;;;;;;6.53;3.92;;;;;;;;;;5016556;28;20092;-65
2022/05/07 02:19:14;;;;;;;6.53;3.97;;;;;;;;;;5016625;28;20109;-65
2022/05/07 02:21:40;;;;;;;6.93;4.38;;;;;;;;;;5016544;28;20463;-65
2022/05/07 02:24:05;;;;;;;6.55;4.32;;;;;;;;;;5016186;28;20037;-66
2022/05/07 02:26:31;;;;;;;8.77;4.50;;;;;;;;;;5016397;28;20052;-65
2022/05/07 02:28:56;;;;;;;10.73;4.97;;;;;;;;;;5016375;28;20029;-64
2022/05/07 02:31:22;;;;;;;6.38;4.13;;;;;;;;;;5016402;28;20056;-65
2022/05/07 02:33:47;;;;;;;9.50;4.57;;;;;;;;;;5016319;28;20018;-66
2022/05/07 02:36:13;;;;;;;7.68;4.40;;;;;;;;;;5016309;28;20383;-63
2022/05/07 02:38:39;;;;;;;6.70;3.92;;;;;;;;;;5016135;28;20058;-66
2022/05/07 02:43:49;;;;;;;6.45;4.10;;;;;;;;;;5016194;28;20117;-65
2022/05/07 02:46:15;;;;;;;7.80;3.90;;;;;;;;;;5016013;28;20104;-64
2022/05/07 02:48:44;;;;;;;6.80;3.83;;;;;;;;;;5015903;28;20037;-65
2022/05/07 02:51:10;;;;;;;5.75;4.15;;;;;;;;;;5015717;28;20076;-65
2022/05/07 02:53:35;;;;;;;7.97;4.18;;;;;;;;;;5015943;28;20438;-65
2022/05/07 02:56:01;;;;;;;7.13;4.18;;;;;;;;;;5015792;28;20118;-65
2022/05/07 02:58:26;;;;;;;11.30;4.43;;;;;;;;;;5015792;28;20144;-65
2022/05/07 03:00:53;;;;;;;5.95;4.30;;;;;;;;;;5015586;28;20038;-65
2022/05/07 03:03:19;;;;;;;9.00;4.53;;;;;;;;;;5015657;28;20026;-65
2022/05/07 03:05:44;;;;;;;6.65;4.57;;;;;;;;;;5015307;28;20488;-65
2022/05/07 03:08:10;;;;;;;7.47;4.25;;;;;;;;;;5015465;28;20037;-65
2022/05/07 03:10:36;;;;;;;6.93;4.25;;;;;;;;;;5015603;28;20022;-65
2022/05/07 03:13:02;;;;;;;7.80;4.35;;;;;;;;;;5014764;28;20070;-64
2022/05/07 03:15:28;;;;;;;11.13;5.00;;;;;;;;;;5015292;28;20523;-65
2022/05/07 03:17:53;;;;;;;11.38;4.78;;;;;;;;;;5015267;28;20105;-65
2022/05/07 03:20:19;;;;;;;8.00;5.40;;;;;;;;;;5015129;28;20022;-65
2022/05/07 03:22:45;;;;;;;9.98;5.30;;;;;;;;;;5015378;28;20361;-65
2022/05/07 03:25:11;;;;;;;10.15;4.97;;;;;;;;;;5015368;28;20483;-65
2022/05/07 03:27:37;;;;;;;8.95;5.13;;;;;;;;;;5015249;28;20034;-66
2022/05/07 03:30:04;;;;;;;7.90;4.65;;;;;;;;;;5015336;28;20383;-65
2022/05/07 03:32:30;;;;;;;7.90;4.43;;;;;;;;;;5015245;28;20038;-65
2022/05/07 03:34:57;;;;;;;8.57;5.00;;;;;;;;;;5014839;28;20068;-65
2022/05/07 03:37:23;;;;;;;13.45;5.28;;;;;;;;;;5014920;28;20026;-65
2022/05/07 03:39:50;;;;;;;9.82;4.60;;;;;;;;;;5015110;28;20025;-64
2022/05/07 03:42:16;;;;;;;11.57;4.93;;;;;;;;;;5014943;28;20069;-65
2022/05/07 03:44:42;;;;;;;8.07;4.68;;;;;;;;;;5014897;28;20096;-64
2022/05/07 03:47:08;;;;;;;9.15;5.72;;;;;;;;;;5014783;28;20026;-65
2022/05/07 03:49:33;;;;;;;7.65;4.68;;;;;;;;;;5014691;28;20375;-65
2022/05/07 03:54:43;;;;;;;11.38;5.50;;;;;;;;;;5015020;28;20037;-64
2022/05/07 03:57:13;;;;;;;9.98;5.65;;;;;;;;;;5014784;28;20026;-65
2022/05/07 03:59:39;;;;;;;8.23;4.57;;;;;;;;;;5014745;28;20030;-65
2022/05/07 04:02:04;;;;;;;7.30;4.82;;;;;;;;;;5014395;28;20042;-65
2022/05/07 04:04:30;;;;;;;8.02;4.78;;;;;;;;;;5014268;28;20030;-65
2022/05/07 04:06:55;;;;;;;8.88;4.93;;;;;;;;;;5014516;28;20106;-65
2022/05/07 04:09:21;;;;;;;11.25;4.70;;;;;;;;;;5014765;28;20026;-66
2022/05/07 04:11:46;;;;;;;12.10;4.78;;;;;;;;;;5014506;28;20368;-65
2022/05/07 04:14:11;;;;;;;8.15;5.03;;;;;;;;;;5014502;28;20053;-65
2022/05/07 04:16:37;;;;;;;8.15;4.32;;;;;;;;;;5014506;28;20110;-65
2022/05/07 04:19:03;;;;;;;8.23;4.88;;;;;;;;;;5014168;28;20053;-65
2022/05/07 04:21:28;;;;;;;10.35;5.18;;;;;;;;;;5014398;28;20113;-66
2022/05/07 04:23:54;;;;;;;7.50;4.80;;;;;;;;;;5014142;28;20029;-65
2022/05/07 04:26:19;;;;;;;8.05;4.95;;;;;;;;;;5013886;28;20041;-65
2022/05/07 04:28:45;;;;;;;7.63;4.65;;;;;;;;;;5013998;28;20022;-65
2022/05/07 04:31:15;;;;;;;6.65;4.70;;;;;;;;;;5014014;28;20046;-65
2022/05/07 04:33:41;;;;;;;11.05;4.70;;;;;;;;;;5013878;28;20442;-65
2022/05/07 04:36:06;;;;;;;11.48;4.78;;;;;;;;;;5014033;28;20022;-65
2022/05/07 04:38:32;;;;;;;9.77;4.78;;;;;;;;;;5014100;28;20453;-65
2022/05/07 04:40:57;;;;;;;9.02;5.55;;;;;;;;;;5014005;28;20080;-65
2022/05/07 04:43:23;;;;;;;15.90;5.40;;;;;;;;;;5013943;28;20022;-66
2022/05/07 04:45:48;;;;;;;8.85;5.60;;;;;;;;;;5012613;28;20025;-65
2022/05/07 04:48:14;;;;;;;10.85;5.18;;;;;;;;;;5012173;28;20045;-65
2022/05/07 04:50:39;;;;;;;11.10;5.55;;;;;;;;;;5013879;28;20021;-66
2022/05/07 04:53:05;;;;;;;10.32;5.82;;;;;;;;;;5013627;28;20029;-64
2022/05/07 04:55:31;;;;;;;14.55;5.93;;;;;;;;;;5013716;28;20034;-65
2022/05/07 04:57:57;;;;;;;14.68;6.05;;;;;;;;;;5013780;28;20018;-66
2022/05/07 05:00:23;;;;;;;12.43;5.53;;;;;;;;;;5013445;28;20096;-65
2022/05/07 05:02:48;;;;;;;10.45;5.70;;;;;;;;;;5013198;28;20073;-65
2022/05/07 05:05:14;;;;;;;14.30;6.13;;;;;;;;;;5013591;28;20022;-65
2022/05/07 05:07:39;;;;;;;17.73;5.72;;;;;;;;;;5013420;28;20383;-65
2022/05/07 05:10:05;;;;;;;12.10;6.07;;;;;;;;;;5013507;28;20017;-65
2022/05/07 05:12:32;;;;;;;10.82;6.07;;;;;;;;;;5013261;28;20053;-66
2022/05/07 05:15:04;;;;;;;12.38;6.38;;;;;;;;;;5013313;28;20033;-64
2022/05/07 05:17:31;;;;;;;13.60;6.35;;;;;;;;;;5013001;28;20022;-66
2022/05/07 05:19:56;;;;;;;10.45;5.97;;;;;;;;;;5013466;28;20022;-66
2022/05/07 05:22:22;;;;;;;11.07;5.93;;;;;;;;;;5013285;28;20383;-65
2022/05/07 05:24:47;;;;;;;10.38;5.60;;;;;;;;;;5013073;28;20080;-66
2022/05/07 05:27:13;;;;;;;8.52;5.53;;;;;;;;;;5013248;28;20052;-66
2022/05/07 05:29:39;;;;;;;10.25;5.60;;;;;;;;;;5013311;28;20025;-65
2022/05/07 05:32:06;;;;;;;9.93;5.28;;;;;;;;;;5013041;28;20159;-66
2022/05/07 05:34:31;;;;;;;7.88;5.07;;;;;;;;;;5013040;28;20049;-64
2022/05/07 05:36:57;;;;;;;9.93;5.38;;;;;;;;;;5012405;28;20030;-66
2022/05/07 05:39:22;;;;;;;10.80;5.65;;;;;;;;;;5013190;28;20028;-65
2022/05/07 05:41:48;;;;;;;8.23;5.45;;;;;;;;;;5012959;28;20041;-65
2022/05/07 05:44:13;;;;;;;10.07;5.88;;;;;;;;;;5012918;28;20018;-65
2022/05/07 05:46:38;;;;;;;11.40;5.13;;;;;;;;;;5012842;28;20037;-66
2022/05/07 05:49:04;;;;;;;18.80;6.10;;;;;;;;;;5012985;28;20038;-65
2022/05/07 05:51:30;;;;;;;12.00;5.35;;;;;;;;;;5012946;28;20101;-65
2022/05/07 05:53:55;;;;;;;10.85;4.82;;;;;;;;;;5012919;28;20030;-65
2022/05/07 05:56:21;;;;;;;18.73;5.38;;;;;;;;;;5012881;28;20478;-66
2022/05/07 05:58:46;;;;;;;11.23;5.20;;;;;;;;;;5012943;28;20122;-66
2022/05/07 06:01:12;;;;;;;13.45;5.68;;;;;;;;;;5012641;28;20050;-65
2022/05/07 06:03:38;;;;;;;12.07;5.65;;;;;;;;;;5012725;28;20058;-66
2022/05/07 06:06:04;;;;;;;10.27;5.30;;;;;;;;;;5012856;28;20064;-65
2022/05/07 06:08:30;;;;;;;9.02;5.43;;;;;;;;;;5012402;28;20549;-65
2022/05/07 06:10:57;;;;;;;18.05;5.82;;;;;;;;;;5012912;28;20148;-64
2022/05/07 06:13:24;;;;;;;10.68;5.28;;;;;;;;;;5012839;28;20026;-65
2022/05/07 06:15:53;;;;;;;16.45;5.82;;;;;;;;;;5012493;28;20029;-65
2022/05/07 06:18:22;;;;;;;8.25;5.05;;;;;;;;;;5012747;28;20024;-64
2022/05/07 06:20:49;;;;;;;10.80;5.50;;;;;;;;;;5012737;28;20499;-63
2022/05/07 06:23:17;;;;;;;12.57;5.80;;;;;;;;;;5012309;28;20467;-64
2022/05/07 06:28:28;;;;;;;10.25;5.22;;;;;;;;;;5012420;28;20143;-64
2022/05/07 06:30:53;;;;;;;10.50;5.70;;;;;;;;;;5012563;28;20018;-64
2022/05/07 06:33:20;;;;;;;13.40;5.55;;;;;;;;;;5012611;28;20498;-64
2022/05/07 06:35:47;;;;;;;12.95;4.50;;;;;;;;;;5012491;28;20034;-64
2022/05/07 06:38:12;;;;;;;8.15;5.30;;;;;;;;;;5012553;28;20026;-64
2022/05/07 06:40:38;;;;;;;7.70;4.85;;;;;;;;;;5012538;28;20018;-64
2022/05/07 06:43:07;;;;;;;15.27;5.00;;;;;;;;;;5012404;28;20108;-65
2022/05/07 06:45:33;;;;;;;8.90;5.40;;;;;;;;;;5012570;28;20497;-65
2022/05/07 06:47:59;;;;;;;8.43;5.10;;;;;;;;;;5013576;28;20038;-64
2022/05/07 06:50:24;;;;;;;15.25;5.45;;;;;;;;;;5015992;28;20026;-63
2022/05/07 06:52:50;;;;;;;9.52;4.65;;;;;;;;;;5015640;28;20029;-63
2022/05/07 06:55:17;;;;;;;9.98;5.18;;;;;;;;;;5015763;28;20022;-64
2022/05/07 06:57:43;;;;;;;8.45;4.72;;;;;;;;;;5015624;28;20380;-65
2022/05/07 07:00:10;;;;;;;10.43;4.93;;;;;;;;;;5015595;28;20022;-66
2022/05/07 07:02:37;;;;;;;6.90;4.78;;;;;;;;;;5015580;28;20056;-66
2022/05/07 07:05:03;;;;;;;7.45;4.55;;;;;;;;;;5015608;28;20025;-64
2022/05/07 07:07:29;;;;;;;10.93;5.03;;;;;;;;;;5015463;28;20382;-64
2022/05/07 07:09:55;;;;;;;8.98;4.97;;;;;;;;;;5015715;28;20105;-63
2022/05/07 07:12:21;;;;;;;8.02;4.90;;;;;;;;;;5015326;28;20053;-63
2022/05/07 07:14:50;;;;;;;11.13;4.97;;;;;;;;;;5015273;28;20413;-64
2022/05/07 07:17:18;;;;;;;13.50;5.38;;;;;;;;;;5015343;28;20137;-64
2022/05/07 07:19:45;;;;;;;5.15;3.80;;;;;;;;;;5015312;28;20105;-63
2022/05/07 07:22:11;;;;;;;6.18;4.30;;;;;;;;;;5015290;28;20434;-63
2022/05/07 07:24:36;;;;;;;6.10;3.72;;;;;;;;;;5014880;28;20109;-64
2022/05/07 07:27:03;;;;;;;6.40;3.60;;;;;;;;;;5015027;28;20030;-63
2022/05/07 07:29:29;;;;;;;6.60;3.97;;;;;;;;;;5015088;28;20041;-64
2022/05/07 07:31:55;;;;;;;10.35;4.45;;;;;;;;;;5014830;28;20026;-64
2022/05/07 07:34:21;;;;;;;6.55;4.30;;;;;;;;;;5014891;28;20057;-64
2022/05/07 07:36:50;;;;;;;5.32;3.88;;;;;;;;;;5014939;28;20058;-65
2022/05/07 07:39:16;;;;;;;9.18;4.47;;;;;;;;;;5014807;28;20468;-65
2022/05/07 07:41:43;;;;;;;6.80;4.22;;;;;;;;;;5014593;28;20095;-64
2022/05/07 07:44:08;;;;;;;6.45;4.50;;;;;;;;;;5014594;28;20049;-63
2022/05/07 07:49:18;;;;;;;5.65;4.53;;;;;;;;;;5014770;28;20383;-64
2022/05/07 07:51:43;;;;;;;7.35;4.50;;;;;;;;;;5014765;28;20100;-64
2022/05/07 07:54:09;;;;;;;6.68;4.88;;;;;;;;;;5014671;28;20026;-65
2022/05/07 07:56:34;;;;;;;6.88;4.88;;;;;;;;;;5014135;28;20065;-64
2022/05/07 07:59:00;;;;;;;7.68;4.57;;;;;;;;;;5014099;28;20455;-64
2022/05/07 08:01:25;;;;;;;9.57;4.45;;;;;;;;;;5013918;28;20081;-64
2022/05/07 08:03:51;;;;;;;9.18;4.30;;;;;;;;;;5014620;28;20034;-63
2022/05/07 08:06:16;;;;;;;10.05;4.75;;;;;;;;;;5014378;28;20022;-64
2022/05/07 08:11:41;;;;;;;5.78;4.57;;;;;;;;;;5014194;28;20075;-64
2022/05/07 08:14:13;;;;;;;7.65;4.50;;;;;;;;;;5014271;28;20050;-65
2022/05/07 08:16:39;;;;;;;6.32;4.10;;;;;;;;;;5014173;28;20065;-64
2022/05/07 08:19:05;;;;;;;5.82;4.43;;;;;;;;;;5014200;28;20084;-64
2022/05/07 08:21:31;;;;;;;5.65;4.18;;;;;;;;;;5014009;28;20506;-65
2022/05/07 08:23:56;;;;;;;5.07;4.00;;;;;;;;;;5013971;28;20030;-63
2022/05/07 08:26:22;;;;;;;6.53;4.13;;;;;;;;;;5013767;28;20022;-65
2022/05/07 08:28:50;;;;;;;7.60;3.97;;;;;;;;;;5013925;28;20041;-64
2022/05/07 08:31:16;;;;;;;6.30;4.22;;;;;;;;;;5014161;28;20123;-65
2022/05/07 08:33:42;;;;;;;7.43;4.38;;;;;;;;;;5014046;28;20073;-64
2022/05/07 08:36:08;;;;;;;4.63;4.10;;;;;;;;;;5013979;28;20026;-64
2022/05/07 08:38:34;;;;;;;8.60;4.40;;;;;;;;;;5013931;28;20380;-64
2022/05/07 08:41:00;;;;;;;6.60;4.20;;;;;;;;;;5013768;28;20037;-64
2022/05/07 08:43:31;;;;;;;6.28;4.20;;;;;;;;;;5013802;28;20447;-65
2022/05/07 08:45:57;;;;;;;7.15;4.28;;;;;;;;;;5013443;28;20044;-65
2022/05/07 08:48:22;;;;;;;6.85;4.55;;;;;;;;;;5013730;28;20038;-65
2022/05/07 08:50:49;;;;;;;8.93;4.78;;;;;;;;;;5013924;28;20033;-64
2022/05/07 08:53:14;;;;;;;5.03;3.53;;;;;;;;;;5013741;28;20044;-63
2022/05/07 08:55:40;;;;;;;8.13;4.40;;;;;;;;;;5013438;28;20021;-64
2022/05/07 08:58:06;;;;;;;5.97;4.00;;;;;;;;;;5013620;28;20025;-65
2022/05/07 09:00:32;;;;;;;5.28;4.20;;;;;;;;;;5013337;28;20053;-64
2022/05/07 09:03:02;;;;;;;5.60;4.10;;;;;;;;;;5013327;28;20412;-64
2022/05/07 09:05:36;;;;;;;6.50;3.90;;;;;;;;;;5013181;28;20108;-64
2022/05/07 09:08:03;;;;;;;7.10;4.00;;;;;;;;;;5013101;28;20471;-64
2022/05/07 09:10:33;;;;;;;9.77;3.85;;;;;;;;;;5013115;28;20108;-63
2022/05/07 09:13:11;;;;;;;6.15;3.70;;;;;;;;;;5012544;28;20025;-63
2022/05/07 09:15:47;;;;;;;6.88;3.95;;;;;;;;;;5012994;28;20428;-63
2022/05/07 09:18:14;;;;;;;9.88;4.60;;;;;;;;;;5012889;28;20160;-64
2022/05/07 09:20:40;;;;;;;7.53;4.70;;;;;;;;;;5013255;28;20036;-65
2022/05/07 09:23:06;;;;;;;7.18;3.50;;;;;;;;;;5012910;28;20096;-64
2022/05/07 09:25:32;;;;;;;6.30;4.85;;;;;;;;;;5012950;28;20390;-64
2022/05/07 09:27:57;;;;;;;8.30;4.43;;;;;;;;;;5013060;28;20099;-64
2022/05/07 09:30:25;;;;;;;6.35;4.10;;;;;;;;;;5013124;28;20030;-64
2022/05/07 09:32:53;;;;;;;12.50;4.25;;;;;;;;;;5013064;28;20033;-62
2022/05/07 09:38:05;;;;;;;7.85;2.92;;;;;;;;;;5012902;28;20029;-63
2022/05/07 09:40:36;;;;;;;10.10;3.20;;;;;;;;;;5013019;28;20068;-63
2022/05/07 09:43:01;;;;;;;4.95;3.40;;;;;;;;;;5012971;28;20029;-63
2022/05/07 09:45:28;;;;;;;6.15;3.50;;;;;;;;;;5012855;28;20026;-64
2022/05/07 09:48:05;;;;;;;5.50;2.90;;;;;;;;;;5012922;28;20109;-64
2022/05/07 09:58:35;;;;;;;5.85;3.50;;;;;;;;;;5012876;28;20048;-62
2022/05/07 10:01:20;;;;;;;6.55;3.50;;;;;;;;;;5012580;28;20406;-63
2022/05/07 10:03:48;;;;;;;6.60;2.75;;;;;;;;;;4993144;28;20041;-64
2022/05/07 10:06:20;;;;;;;13.98;3.00;;;;;;;;;;4993084;28;20072;-63
2022/05/07 10:09:13;;;;;;;5.28;2.80;;;;;;;;;;4993016;28;20034;-64
2022/05/07 10:11:39;;;;;;;4.38;2.80;;;;;;;;;;4989958;28;20045;-64
2022/05/07 10:14:04;;;;;;;11.70;3.78;;;;;;;;;;4992872;28;20113;-63
2022/05/07 10:16:31;;;;;;;6.28;3.20;;;;;;;;;;4993149;28;20371;-64
2022/05/07 10:18:56;;;;;;;6.50;2.92;;;;;;;;;;4993006;28;20042;-63
2022/05/07 10:21:22;;;;;;;4.65;2.70;;;;;;;;;;4992793;28;20487;-63
2022/05/07 10:23:56;;;;;;;5.85;2.63;;;;;;;;;;5006631;28;20134;-64
2022/05/07 10:26:43;;;;;;;6.70;2.72;;;;;;;;;;5016267;28;20391;-63
2022/05/07 10:29:30;;;;;;;4.72;2.63;;;;;;;;;;5016485;28;20026;-64
2022/05/07 10:32:03;;;;;;;6.88;2.95;;;;;;;;;;5016270;28;20032;-64
2022/05/07 10:34:28;;;;;;;6.95;2.90;;;;;;;;;;5016257;28;20037;-64
2022/05/07 10:37:04;;;;;;;3.80;2.65;;;;;;;;;;5015957;28;20030;-62
2022/05/07 10:39:30;;;;;;;6.97;3.08;;;;;;;;;;5016124;28;20026;-62
2022/05/07 10:41:57;;;;;;;8.13;3.40;;;;;;;;;;5016115;28;20041;-62
2022/05/07 10:44:33;;;;;;;6.93;2.95;;;;;;;;;;5015896;28;20022;-62
2022/05/07 10:47:16;;;;;;;6.45;3.47;;;;;;;;;;5015759;28;20033;-62
2022/05/07 10:50:06;;;;;;;10.05;3.80;;;;;;;;;;5015643;28;20036;-64
2022/05/07 10:52:34;;;;;;;9.45;3.58;;;;;;;;;;5015909;28;20180;-63
2022/05/07 10:55:27;;;;;;;5.55;3.20;;;;;;;;;;5015760;28;20361;-64
2022/05/07 10:57:56;;;;;;;9.90;3.40;;;;;;;;;;5014803;28;20530;-63
2022/05/07 11:00:23;;;;;;;7.38;3.25;;;;;;;;;;5015640;28;20046;-64
2022/05/07 11:02:50;;;;;;;6.70;3.25;;;;;;;;;;5015582;28;20038;-64
2022/05/07 11:05:16;;;;;;;5.07;2.80;;;;;;;;;;5015234;28;20032;-64
2022/05/07 11:07:43;;;;;;;8.13;3.17;;;;;;;;;;5015562;28;20028;-63
2022/05/07 11:10:12;;;;;;;6.70;3.17;;;;;;;;;;5015431;28;20026;-63
2022/05/07 11:12:39;;;;;;;9.27;3.00;;;;;;;;;;5015534;28;20028;-63
2022/05/07 11:15:06;;;;;;;6.32;2.90;;;;;;;;;;5015370;28;21080;-64
2022/05/07 11:17:34;;;;;;;13.40;3.13;;;;;;;;;;5015271;28;20033;-65
2022/05/07 11:20:00;;;;;;;7.90;3.92;;;;;;;;;;5015122;28;20026;-62
2022/05/07 11:22:32;;;;;;;7.60;3.40;;;;;;;;;;5015138;28;20471;-64
2022/05/07 11:24:59;;;;;;;6.63;3.50;;;;;;;;;;5015205;28;20033;-63
2022/05/07 11:27:26;;;;;;;6.53;3.40;;;;;;;;;;5015246;28;20076;-64
2022/05/07 11:29:53;;;;;;;5.90;2.88;;;;;;;;;;5015254;28;20030;-63
2022/05/07 11:32:19;;;;;;;5.05;3.08;;;;;;;;;;5015029;28;20061;-63
2022/05/07 11:34:45;;;;;;;5.03;2.50;;;;;;;;;;5013922;28;20053;-63
2022/05/07 11:37:12;;;;;;;4.75;2.85;;;;;;;;;;5015168;28;20030;-65
2022/05/07 11:39:56;;;;;;;7.90;3.00;;;;;;;;;;5015023;28;20030;-65
2022/05/07 11:42:25;;;;;;;9.15;2.80;;;;;;;;;;5015147;28;20113;-64
2022/05/07 11:47:50;;;;;;;8.30;3.83;;;;;;;;;;5014770;28;20281;-65
2022/05/07 11:50:41;;;;;;;12.18;3.80;;;;;;;;;;5014807;28;20543;-65
2022/05/07 11:53:15;;;;;;;8.23;3.60;;;;;;;;;;5014852;28;20049;-63
2022/05/07 11:55:42;;;;;;;15.60;3.80;;;;;;;;;;5014679;28;20030;-61
2022/05/07 11:58:23;;;;;;;10.32;4.13;;;;;;;;;;5013373;28;20029;-62
2022/05/07 12:00:51;;;;;;;12.73;4.60;;;;;;;;;;5014451;28;20049;-64
2022/05/07 12:03:25;;;;;;;10.60;4.70;;;;;;;;;;5014186;28;20518;-65
2022/05/07 12:05:52;;;;;;;8.05;4.18;;;;;;;;;;5014472;28;20037;-62
2022/05/07 12:08:19;;;;;;;8.55;4.30;;;;;;;;;;5014245;28;20498;-62
2022/05/07 12:10:46;;;;;;;6.82;3.83;;;;;;;;;;5014518;28;20088;-62
2022/05/07 12:13:16;;;;;;;9.10;4.72;;;;;;;;;;5014549;28;20037;-63
2022/05/07 12:18:30;;;;;;;8.50;4.60;;;;;;;;;;5014154;28;20576;-62
2022/05/07 12:20:56;;;;;;;9.60;4.68;;;;;;;;;;5014163;28;20034;-63
2022/05/07 12:31:52;;;;;;;7.53;4.22;;;;;;;;;;4992478;28;20081;-64
2022/05/07 12:34:18;;;;;;;8.45;4.22;;;;;;;;;;4992170;28;20030;-64
2022/05/07 12:36:44;;;;;;;8.23;4.28;;;;;;;;;;4992447;28;20540;-65
2022/05/07 12:39:09;;;;;;;7.25;3.53;;;;;;;;;;4992222;28;20038;-66
2022/05/07 12:41:35;;;;;;;9.18;3.55;;;;;;;;;;4992311;28;20400;-65
2022/05/07 12:44:00;;;;;;;7.03;3.47;;;;;;;;;;4992230;28;20376;-64
2022/05/07 12:46:27;;;;;;;10.18;4.15;;;;;;;;;;4991742;28;20353;-62
2022/05/07 12:48:55;;;;;;;9.15;4.10;;;;;;;;;;4991801;28;20487;-64
2022/05/07 12:51:21;;;;;;;7.03;2.78;;;;;;;;;;4992014;28;20065;-64
2022/05/07 12:53:49;;;;;;;11.43;3.28;;;;;;;;;;4991936;28;20038;-63
2022/05/07 12:56:14;;;;;;;4.97;3.25;;;;;;;;;;4991875;28;20023;-64
2022/05/07 12:58:40;;;;;;;8.13;2.75;;;;;;;;;;4991823;28;20042;-62
2022/05/07 13:01:05;;;;;;;7.15;2.70;;;;;;;;;;4991336;28;20082;-62
2022/05/07 13:03:31;;;;;;;6.93;2.90;;;;;;;;;;4992240;28;20034;-63
2022/05/07 13:05:56;;;;;;;6.03;2.70;;;;;;;;;;5013522;28;20430;-64
2022/05/07 13:08:22;;;;;;;4.80;2.60;;;;;;;;;;5013305;28;20026;-63
2022/05/07 13:10:48;;;;;;;6.28;2.40;;;;;;;;;;5013416;28;20037;-64
2022/05/07 13:13:14;;;;;;;12.65;3.05;;;;;;;;;;5013319;28;20164;-62
2022/05/07 13:15:40;;;;;;;6.82;2.40;;;;;;;;;;5013061;28;20029;-63
2022/05/07 13:18:06;;;;;;;4.90;2.60;;;;;;;;;;5013149;28;20179;-64
2022/05/07 13:20:31;;;;;;;8.82;3.13;;;;;;;;;;5013271;28;20060;-62
2022/05/07 13:22:57;;;;;;;5.32;2.30;;;;;;;;;;5013189;28;20032;-63
2022/05/07 13:25:23;;;;;;;7.25;2.30;;;;;;;;;;5013128;28;20464;-62
2022/05/07 13:27:49;;;;;;;4.47;2.47;;;;;;;;;;5013086;28;20045;-63
2022/05/07 13:30:17;;;;;;;3.70;2.10;;;;;;;;;;5012893;28;20550;-64
2022/05/07 13:32:44;;;;;;;8.93;2.70;;;;;;;;;;5013010;28;20475;-63
2022/05/07 13:35:11;;;;;;;6.03;2.20;;;;;;;;;;5013047;28;20029;-63
2022/05/07 13:37:37;;;;;;;6.43;2.30;;;;;;;;;;5012819;28;20472;-64
2022/05/07 13:40:04;;;;;;;8.65;3.15;;;;;;;;;;5013029;28;20038;-62
2022/05/07 13:42:29;;;;;;;4.53;2.40;;;;;;;;;;5012954;28;20017;-62
2022/05/07 13:44:55;;;;;;;3.95;2.25;;;;;;;;;;5012394;28;20103;-62
2022/05/07 13:47:21;;;;;;;9.48;4.65;;;;;;;;;;5012955;28;20523;-64
2022/05/07 13:49:46;;;;;;;7.38;3.03;;;;;;;;;;5012866;28;20025;-63
2022/05/07 13:52:12;;;;;;;4.80;2.55;;;;;;;;;;5012808;28;20083;-63
2022/05/07 13:54:38;;;;;;;6.38;2.97;;;;;;;;;;5012502;28;20045;-64
2022/05/07 13:57:04;;;;;;;6.13;2.38;;;;;;;;;;5012811;28;20026;-63
2022/05/07 13:59:31;;;;;;;5.22;2.20;;;;;;;;;;5016356;28;20091;-63
2022/05/07 14:01:57;;;;;;;4.18;2.17;;;;;;;;;;5016504;28;20041;-64
2022/05/07 14:04:23;;;;;;;5.95;1.98;;;;;;;;;;5016292;28;20025;-63
2022/05/07 14:06:48;;;;;;;3.40;2.25;;;;;;;;;;5016939;28;20018;-62
2022/05/07 14:09:14;;;;;;;4.60;1.60;;;;;;;;;;5016829;28;20038;-62
2022/05/07 14:11:41;;;;;;;4.90;2.63;;;;;;;;;;5016784;28;20058;-64
2022/05/07 14:14:07;;;;;;;5.68;1.80;;;;;;;;;;5016558;28;20061;-62
2022/05/07 14:16:32;;;;;;;2.50;1.60;;;;;;;;;;5016605;28;20065;-62
2022/05/07 14:18:58;;;;;;;8.10;2.70;;;;;;;;;;5016602;28;20034;-63
2022/05/07 14:21:23;;;;;;;5.75;2.70;;;;;;;;;;5016553;28;20455;-62
2022/05/07 14:23:49;;;;;;;3.40;1.10;;;;;;;;;;5016304;28;20021;-63
2022/05/07 14:26:15;;;;;;;5.78;2.33;;;;;;;;;;5016352;28;20029;-64
2022/05/07 14:28:40;;;;;;;6.85;2.42;;;;;;;;;;5016183;28;20391;-64
2022/05/07 14:31:06;;;;;;;7.68;3.25;;;;;;;;;;5016331;28;20033;-63
2022/05/07 14:33:31;;;;;;;5.40;1.60;;;;;;;;;;5016354;28;20415;-62
2022/05/07 14:35:57;;;;;;;4.90;2.00;;;;;;;;;;5016337;28;20448;-64
2022/05/07 14:38:23;;;;;;;7.13;2.50;;;;;;;;;;5016302;28;20025;-65
2022/05/07 14:40:49;;;;;;;6.13;2.38;;;;;;;;;;5016280;28;20052;-64
2022/05/07 14:43:15;;;;;;;12.55;3.50;;;;;;;;;;5015653;28;20559;-65
2022/05/07 14:45:40;;;;;;;7.47;3.72;;;;;;;;;;5015751;28;20109;-63
2022/05/07 14:48:06;;;;;;;7.53;3.70;;;;;;;;;;5015979;28;20064;-65
2022/05/07 14:50:32;;;;;;;9.07;3.60;;;;;;;;;;5016060;28;20045;-64
2022/05/07 14:52:57;;;;;;;7.45;2.70;;;;;;;;;;5015874;28;20560;-64
2022/05/07 14:55:23;;;;;;;4.78;3.08;;;;;;;;;;5015734;28;20072;-65
2022/05/07 14:57:49;;;;;;;5.32;2.67;;;;;;;;;;5015495;28;20034;-63
2022/05/07 15:00:15;;;;;;;8.20;3.60;;;;;;;;;;5015649;28;20046;-63
2022/05/07 15:02:42;;;;;;;4.88;2.00;;;;;;;;;;5015631;28;20070;-64
2022/05/07 15:05:09;;;;;;;8.77;2.30;;;;;;;;;;5015607;28;20065;-63
2022/05/07 15:07:36;;;;;;;6.22;2.47;;;;;;;;;;5015620;28;20030;-63
2022/05/07 15:12:49;;;;;;;4.05;1.90;;;;;;;;;;5015485;28;20083;-63
2022/05/07 15:15:15;;;;;;;35.63;16.52;;;;;;;;;;5015593;28;20022;-63
2022/05/07 15:17:41;;;;;;;24.60;11.60;;;;;;;;;;5015461;28;20032;-64
2022/05/07 15:20:07;;;;;;;24.85;12.07;;;;;;;;;;5015681;28;20030;-64
2022/05/07 15:22:32;;;;;;;7.45;4.32;;;;;;;;;;5015396;28;20025;-64
2022/05/07 15:24:58;;;;;;;4.90;2.35;;;;;;;;;;5014957;28;20495;-64
2022/05/07 15:27:23;;;;;;;3.75;2.25;;;;;;;;;;5015540;28;20018;-65
2022/05/07 15:29:49;;;;;;;4.60;2.15;;;;;;;;;;5015552;28;20044;-64